Observation data for Friona on 02/14/2020      Previous  Date  Next       Current Mesonet Observations  Soil Data  Daily Summary Page  Observations in Plain Language
KFAS 140600Z 13014G19KT M03/M04 A3024 RMK A01 T10261042  RH  089%=      5-min Rain = 0
KFAS 140605Z 13015KT M03/M04 A3024 RMK A01 T10261042  RH  090%=      5-min Rain = 0
KFAS 140610Z 13015KT M03/M04 A3024 RMK A01 T10271042  RH  090%=      5-min Rain = 0
KFAS 140615Z 13016KT M03/M04 A3024 RMK A01 T10281043  RH  090%=      5-min Rain = 0
KFAS 140620Z 13014KT M03/M04 A3024 RMK A01 T10281042  RH  091%=      5-min Rain = 0
KFAS 140625Z 13013KT M03/M04 A3024 RMK A01 T10291042  RH  091%=      5-min Rain = 0
KFAS 140630Z 14014KT M03/M04 A3024 RMK A01 T10291041  RH  092%=      5-min Rain = 0
KFAS 140635Z 14013KT M03/M04 A3024 RMK A01 T10291041  RH  092%=      5-min Rain = 0
KFAS 140640Z 13013KT M03/M04 A3024 RMK A01 T10291041  RH  092%=      5-min Rain = 0
KFAS 140645Z 13014KT M03/M04 A3024 RMK A01 T10301041  RH  093%=      5-min Rain = 0
KFAS 140650Z 14013KT M03/M04 A3024 RMK A01 T10301040  RH  093%=      5-min Rain = 0
KFAS 140655Z 14013KT M03/M04 A3024 RMK A01 T10301039  RH  093%=      5-min Rain = 0
KFAS 140700Z 15012KT M03/M04 A3024 RMK A01 T10291038  RH  094%=      5-min Rain = 0
KFAS 140705Z 15014KT M03/M04 A3024 RMK A01 T10281036  RH  094%=      5-min Rain = 0
KFAS 140710Z 14014KT M03/M04 A3024 RMK A01 T10281036  RH  094%=      5-min Rain = 0
KFAS 140715Z 14015KT M03/M04 A3024 RMK A01 T10291037  RH  094%=      5-min Rain = 0
KFAS 140720Z 14014KT M03/M04 A3024 RMK A01 T10291037  RH  094%=      5-min Rain = 0
KFAS 140725Z 14014KT M03/M04 A3024 RMK A01 T10291037  RH  095%=      5-min Rain = 0
KFAS 140730Z 14015KT M03/M04 A3025 RMK A01 T10291037  RH  095%=      5-min Rain = 0
KFAS 140735Z 14016KT M03/M04 A3025 RMK A01 T10301038  RH  095%=      5-min Rain = 0
KFAS 140740Z 15014KT M03/M04 A3025 RMK A01 T10311038  RH  095%=      5-min Rain = 0
KFAS 140745Z 15013G18KT M03/M04 A3025 RMK A01 T10311038  RH  095%=      5-min Rain = 0
KFAS 140750Z 15014G19KT M03/M04 A3025 RMK A01 T10311038  RH  095%=      5-min Rain = 0
KFAS 140755Z 14015KT M03/M04 A3025 RMK A01 T10321039  RH  095%=      5-min Rain = 0
KFAS 140800Z 14015KT M03/M04 A3025 RMK A01 T10321039  RH  096%=      5-min Rain = 0
KFAS 140805Z 15014KT M03/M04 A3025 RMK A01 T10321038  RH  096%=      5-min Rain = 0
KFAS 140810Z 14015KT M03/M04 A3025 RMK A01 T10321037  RH  096%=      5-min Rain = 0
KFAS 140815Z 14015KT M03/M04 A3025 RMK A01 T10321037  RH  097%=      5-min Rain = 0
KFAS 140820Z 15013KT M03/M04 A3025 RMK A01 T10321036  RH  097%=      5-min Rain = 0
KFAS 140825Z 15013KT M03/M04 A3025 RMK A01 T10311036  RH  097%=      5-min Rain = 0
KFAS 140830Z 15014KT M03/M04 A3025 RMK A01 T10311035  RH  098%=      5-min Rain = 0
KFAS 140835Z 15014KT M03/M04 A3025 RMK A01 T10311035  RH  098%=      5-min Rain = 0
KFAS 140840Z 15014KT M03/M04 A3025 RMK A01 T10321035  RH  098%=      5-min Rain = 0
KFAS 140845Z 15014KT M03/M04 A3025 RMK A01 T10321035  RH  099%=      5-min Rain = 0
KFAS 140850Z 15015KT M03/M04 A3025 RMK A01 T10331036  RH  099%=      5-min Rain = 0
KFAS 140855Z 15014KT M03/M04 A3025 RMK A01 T10331036  RH  099%=      5-min Rain = 0
KFAS 140900Z 15014KT M03/M04 A3025 RMK A01 T10331035  RH  099%=      5-min Rain = 0
KFAS 140905Z 15013KT M03/M04 A3025 RMK A01 T10331035  RH  099%=      5-min Rain = 0
KFAS 140910Z 15013KT M03/M04 A3025 RMK A01 T10331035  RH  099%=      5-min Rain = 0
KFAS 140915Z 14012KT M03/M04 A3024 RMK A01 T10341036  RH  099%=      5-min Rain = 0
KFAS 140920Z 15012KT M04/M04 A3024 RMK A01 T10351037  RH  099%=      5-min Rain = 0
KFAS 140925Z 14012KT M04/M04 A3024 RMK A01 T10351037  RH  099%=      5-min Rain = 0
KFAS 140930Z 14012KT M04/M04 A3024 RMK A01 T10361039  RH  099%=      5-min Rain = 0
KFAS 140935Z 14012KT M04/M04 A3024 RMK A01 T10371039  RH  099%=      5-min Rain = 0
KFAS 140940Z 15013KT M04/M04 A3024 RMK A01 T10361038  RH  099%=      5-min Rain = 0
KFAS 140945Z 15014KT M04/M04 A3024 RMK A01 T10351037  RH  099%=      5-min Rain = 0
KFAS 140950Z 15012KT M04/M04 A3024 RMK A01 T10351037  RH  099%=      5-min Rain = 0
KFAS 140955Z 16013KT M04/M04 A3024 RMK A01 T10351036  RH  099%=      5-min Rain = 0
KFAS 141000Z 16011G16KT M04/M04 A3024 RMK A01 T10351036  RH  100%=      5-min Rain = 0
KFAS 141005Z 16013KT M04/M04 A3024 RMK A01 T10351036  RH  100%=      5-min Rain = 0
KFAS 141010Z 16013KT M04/M04 A3024 RMK A01 T10351036  RH  100%=      5-min Rain = 0
KFAS 141015Z 16013KT M04/M04 A3024 RMK A01 T10361036  RH  100%=      5-min Rain = 0
KFAS 141020Z 16012KT M04/M04 A3024 RMK A01 T10351036  RH  100%=      5-min Rain = 0
KFAS 141025Z 16011KT M04/M04 A3024 RMK A01 T10351036  RH  100%=      5-min Rain = 0
KFAS 141030Z 17011G16KT M04/M04 A3024 RMK A01 T10351035  RH  100%=      5-min Rain = 0
KFAS 141035Z 17013KT M03/M03 A3023 RMK A01 T10331034  RH  100%=      5-min Rain = 0
KFAS 141040Z 17013KT M03/M03 A3023 RMK A01 T10331034  RH  100%=      5-min Rain = 0
KFAS 141045Z 17013G18KT M03/M03 A3023 RMK A01 T10331034  RH  100%=      5-min Rain = 0
KFAS 141050Z 17012KT M03/M03 A3023 RMK A01 T10331034  RH  100%=      5-min Rain = 0
KFAS 141055Z 17012KT M03/M03 A3023 RMK A01 T10331034  RH  100%=      5-min Rain = 0
KFAS 141100Z 17012KT M03/M03 A3023 RMK A01 T10341034  RH  100%=      5-min Rain = 0
KFAS 141105Z 17012KT M03/M04 A3023 RMK A01 T10341035  RH  100%=      5-min Rain = 0
KFAS 141110Z 17013KT M04/M04 A3023 RMK A01 T10351036  RH  100%=      5-min Rain = 0
KFAS 141115Z 17014KT M04/M04 A3023 RMK A01 T10351036  RH  100%=      5-min Rain = 0
KFAS 141120Z 16013KT M04/M04 A3023 RMK A01 T10351036  RH  100%=      5-min Rain = 0
KFAS 141125Z 17014KT M04/M04 A3023 RMK A01 T10351036  RH  100%=      5-min Rain = 0
KFAS 141130Z 17013KT M04/M04 A3023 RMK A01 T10351035  RH  100%=      5-min Rain = 0
KFAS 141135Z 17014KT M04/M04 A3023 RMK A01 T10351036  RH  100%=      5-min Rain = 0
KFAS 141140Z 16012KT M04/M04 A3023 RMK A01 T10351036  RH  100%=      5-min Rain = 0
KFAS 141145Z 17012KT M04/M04 A3023 RMK A01 T10351036  RH  100%=      5-min Rain = 0
KFAS 141150Z 17014KT M04/M04 A3023 RMK A01 T10361036  RH  100%=      5-min Rain = 0
KFAS 141155Z 17014KT M04/M04 A3023 RMK A01 T10361037  RH  100%=      5-min Rain = 0
KFAS 141200Z 17014KT M04/M04 A3023 RMK A01 T10361037  RH  100%=      5-min Rain = 0
KFAS 141205Z 17014KT M04/M04 A3023 RMK A01 T10371037  RH  100%=      5-min Rain = 0
KFAS 141210Z 17013KT M04/M04 A3023 RMK A01 T10361037  RH  100%=      5-min Rain = 0
KFAS 141215Z 17014KT M04/M04 A3023 RMK A01 T10361037  RH  100%=      5-min Rain = 0
KFAS 141220Z 17013KT M04/M04 A3023 RMK A01 T10361037  RH  100%=      5-min Rain = 0
KFAS 141225Z 18013KT M04/M04 A3023 RMK A01 T10351036  RH  100%=      5-min Rain = 0
KFAS 141230Z 17013KT M04/M04 A3023 RMK A01 T10351036  RH  100%=      5-min Rain = 0
KFAS 141235Z 17011KT M04/M04 A3023 RMK A01 T10351036  RH  100%=      5-min Rain = 0
KFAS 141240Z 17013KT M04/M04 A3023 RMK A01 T10351036  RH  100%=      5-min Rain = 0
KFAS 141245Z 17012KT M04/M04 A3024 RMK A01 T10361037  RH  100%=      5-min Rain = 0
KFAS 141250Z 17013KT M04/M04 A3024 RMK A01 T10361037  RH  100%=      5-min Rain = 0
KFAS 141255Z 17012KT M04/M04 A3024 RMK A01 T10361037  RH  100%=      5-min Rain = 0
KFAS 141300Z 17012KT M04/M04 A3024 RMK A01 T10351036  RH  100%=      5-min Rain = 0
KFAS 141305Z 18012KT M03/M04 A3023 RMK A01 T10341035  RH  100%=      5-min Rain = 0
KFAS 141310Z 18012KT M03/M03 A3023 RMK A01 T10331034  RH  100%=      5-min Rain = 0
KFAS 141315Z 18012G17KT M03/M03 A3023 RMK A01 T10321033  RH  100%=      5-min Rain = 0
KFAS 141320Z 19012G17KT M03/M03 A3023 RMK A01 T10321033  RH  100%=      5-min Rain = 0
KFAS 141325Z 18012G17KT M03/M03 A3024 RMK A01 T10321033  RH  100%=      5-min Rain = 0
KFAS 141330Z 18012KT M03/M03 A3024 RMK A01 T10321033  RH  100%=      5-min Rain = 0
KFAS 141335Z 18013KT M03/M03 A3024 RMK A01 T10321032  RH  100%=      5-min Rain = 0
KFAS 141340Z 18012KT M03/M03 A3024 RMK A01 T10311032  RH  100%=      5-min Rain = 0
KFAS 141345Z 18013KT M03/M03 A3024 RMK A01 T10301031  RH  100%=      5-min Rain = 0
KFAS 141350Z 19014KT M03/M03 A3024 RMK A01 T10301031  RH  100%=      5-min Rain = 0
KFAS 141355Z 19013G18KT M03/M03 A3024 RMK A01 T10301031  RH  100%=      5-min Rain = 0
KFAS 141400Z 19014KT M03/M03 A3024 RMK A01 T10291030  RH  100%=      5-min Rain = 0
KFAS 141405Z 19015KT M03/M03 A3025 RMK A01 T10291030  RH  100%=      5-min Rain = 0
KFAS 141410Z 19015KT M03/M03 A3025 RMK A01 T10291030  RH  100%=      5-min Rain = 0
KFAS 141415Z 19015KT M03/M03 A3025 RMK A01 T10291029  RH  100%=      5-min Rain = 0
KFAS 141420Z 19016KT M03/M03 A3025 RMK A01 T10281029  RH  100%=      5-min Rain = 0
KFAS 141425Z 19015KT M03/M03 A3025 RMK A01 T10281029  RH  100%=      5-min Rain = 0
KFAS 141430Z 19015KT M03/M03 A3025 RMK A01 T10271028  RH  100%=      5-min Rain = 0
KFAS 141435Z 19013KT M03/M03 A3025 RMK A01 T10271028  RH  100%=      5-min Rain = 0
KFAS 141440Z 19014KT M03/M03 A3025 RMK A01 T10261027  RH  100%=      5-min Rain = 0
KFAS 141445Z 20013KT M03/M03 A3025 RMK A01 T10261027  RH  100%=      5-min Rain = 0
KFAS 141450Z 19013KT M03/M03 A3025 RMK A01 T10251026  RH  100%=      5-min Rain = 0
KFAS 141455Z 19012KT M03/M03 A3025 RMK A01 T10251026  RH  100%=      5-min Rain = 0
KFAS 141500Z 19012G17KT M02/M03 A3025 RMK A01 T10241025  RH  100%=      5-min Rain = 0
KFAS 141505Z 20013KT M02/M03 A3025 RMK A01 T10241025  RH  100%=      5-min Rain = 0
KFAS 141510Z 20013KT M02/M02 A3025 RMK A01 T10231024  RH  100%=      5-min Rain = 0
KFAS 141515Z 20014KT M02/M02 A3025 RMK A01 T10231024  RH  100%=      5-min Rain = 0
KFAS 141520Z 20013KT M02/M02 A3025 RMK A01 T10221023  RH  100%=      5-min Rain = 0
KFAS 141525Z 20013KT M02/M02 A3025 RMK A01 T10211022  RH  100%=      5-min Rain = 0
KFAS 141530Z 20014KT M02/M02 A3025 RMK A01 T10211022  RH  100%=      5-min Rain = 0
KFAS 141535Z 19013KT M02/M02 A3025 RMK A01 T10201022  RH  100%=      5-min Rain = 0
KFAS 141540Z 19012KT M02/M02 A3025 RMK A01 T10201021  RH  100%=      5-min Rain = 0
KFAS 141545Z 19012KT M02/M02 A3025 RMK A01 T10191020  RH  100%=      5-min Rain = 0
KFAS 141550Z 19013KT M02/M02 A3025 RMK A01 T10191020  RH  100%=      5-min Rain = 0
KFAS 141555Z 20013KT M02/M02 A3025 RMK A01 T10181019  RH  100%=      5-min Rain = 0
KFAS 141600Z 19012KT M02/M02 A3025 RMK A01 T10181019  RH  100%=      5-min Rain = 0
KFAS 141605Z 19013KT M02/M02 A3025 RMK A01 T10171019  RH  100%=      5-min Rain = 0
KFAS 141610Z 20013KT M02/M02 A3025 RMK A01 T10171018  RH  100%=      5-min Rain = 0
KFAS 141615Z 19014KT M02/M02 A3025 RMK A01 T10171018  RH  100%=      5-min Rain = 0
KFAS 141620Z 20014KT M02/M02 A3024 RMK A01 T10171018  RH  100%=      5-min Rain = 0
KFAS 141625Z 19013KT M02/M02 A3024 RMK A01 T10151017  RH  100%=      5-min Rain = 0
KFAS 141630Z 19012KT M02/M02 A3024 RMK A01 T10151016  RH  100%=      5-min Rain = 0
KFAS 141635Z 19012KT M01/M02 A3024 RMK A01 T10141015  RH  100%=      5-min Rain = 0
KFAS 141640Z 19012KT M01/M02 A3024 RMK A01 T10141016  RH  100%=      5-min Rain = 0
KFAS 141645Z 20013KT M01/M01 A3024 RMK A01 T10131014  RH  100%=      5-min Rain = 0
KFAS 141650Z 20013KT M01/M01 A3024 RMK A01 T10131014  RH  100%=      5-min Rain = 0
KFAS 141655Z 20013KT M01/M01 A3024 RMK A01 T10121013  RH  100%=      5-min Rain = 0
KFAS 141700Z 19014KT M01/M01 A3024 RMK A01 T10111012  RH  100%=      5-min Rain = 0
KFAS 141705Z 19011KT M01/M01 A3024 RMK A01 T10101011  RH  100%=      5-min Rain = 0
KFAS 141710Z 20012KT M01/M01 A3024 RMK A01 T10101011  RH  100%=      5-min Rain = 0
KFAS 141715Z 21013KT M01/M01 A3024 RMK A01 T10091010  RH  100%=      5-min Rain = 0
KFAS 141720Z 20012KT M01/M01 A3024 RMK A01 T10081010  RH  100%=      5-min Rain = 0
KFAS 141725Z 20013G18KT M01/M01 A3024 RMK A01 T10081009  RH  100%=      5-min Rain = 0
KFAS 141730Z 20015KT M01/M01 A3023 RMK A01 T10061008  RH  100%=      5-min Rain = 0
KFAS 141735Z 20014KT M01/M01 A3023 RMK A01 T10061007  RH  100%=      5-min Rain = 0
KFAS 141740Z 20016KT M01/M01 A3023 RMK A01 T10051006  RH  100%=      5-min Rain = 0
KFAS 141745Z 20016KT M00/M01 A3023 RMK A01 T10041005  RH  100%=      5-min Rain = 0
KFAS 141750Z 21015KT M00/M00 A3022 RMK A01 T10021004  RH  100%=      5-min Rain = 0
KFAS 141755Z 20015G20KT M00/M00 A3022 RMK A01 T10011003  RH  100%=      5-min Rain = 0
KFAS 141800Z 20016KT 00/M00 A3022 RMK A01 T00011002  RH  099%=      5-min Rain = 0
KFAS 141805Z 20017KT 00/M00 A3022 RMK A01 T00031002  RH  098%=      5-min Rain = 0
KFAS 141810Z 21016KT 00/M00 A3022 RMK A01 T00031004  RH  096%=      5-min Rain = 0
KFAS 141815Z 20017KT 00/M01 A3021 RMK A01 T00031005  RH  095%=      5-min Rain = 0
KFAS 141820Z 20017KT 01/M00 A3021 RMK A01 T00051004  RH  095%=      5-min Rain = 0
KFAS 141825Z 21018KT 01/M00 A302 RMK A01 T00081002  RH  094%=      5-min Rain = 0
KFAS 141830Z 21017KT 01/M00 A302 RMK A01 T00101003  RH  092%=      5-min Rain = 0
KFAS 141835Z 22017KT 01/M00 A302 RMK A01 T00101003  RH  092%=      5-min Rain = 0
KFAS 141840Z 21016G22KT 02/00 A302 RMK A01 T00150001  RH  091%=      5-min Rain = 0
KFAS 141845Z 21018G23KT 02/00 A3019 RMK A01 T001700-0  RH  090%=      5-min Rain = 0
KFAS 141850Z 20018KT 02/00 A3019 RMK A01 T00180000  RH  089%=      5-min Rain = 0
KFAS 141855Z 20017KT 02/00 A3019 RMK A01 T00190001  RH  089%=      5-min Rain = 0
KFAS 141900Z 20018G23KT 02/00 A3018 RMK A01 T00200002  RH  089%=      5-min Rain = 0
KFAS 141905Z 21017G22KT 02/00 A3018 RMK A01 T00220003  RH  088%=      5-min Rain = 0
KFAS 141910Z 20017G22KT 02/00 A3017 RMK A01 T00240002  RH  087%=      5-min Rain = 0
KFAS 141915Z 20018KT 02/00 A3017 RMK A01 T00220001  RH  087%=      5-min Rain = 0
KFAS 141920Z 20019KT 03/00 A3017 RMK A01 T00250003  RH  086%=      5-min Rain = 0
KFAS 141925Z 21017KT 03/00 A3017 RMK A01 T00270004  RH  086%=      5-min Rain = 0
KFAS 141930Z 21018KT 03/00 A3017 RMK A01 T00280003  RH  085%=      5-min Rain = 0
KFAS 141935Z 21017G22KT 03/01 A3016 RMK A01 T00270005  RH  087%=      5-min Rain = 0
KFAS 141940Z 20017G23KT 03/01 A3016 RMK A01 T00310006  RH  085%=      5-min Rain = 0
KFAS 141945Z 20017G22KT 04/01 A3015 RMK A01 T00350008  RH  084%=      5-min Rain = 0
KFAS 141950Z 20016G21KT 03/01 A3015 RMK A01 T00340008  RH  084%=      5-min Rain = 0
KFAS 141955Z 20017G22KT 04/01 A3015 RMK A01 T00350008  RH  084%=      5-min Rain = 0
KFAS 142000Z 20017G22KT 04/01 A3014 RMK A01 T00350008  RH  084%=      5-min Rain = 0
KFAS 142005Z 20017G22KT 04/01 A3014 RMK A01 T00370009  RH  084%=      5-min Rain = 0
KFAS 142010Z 20017KT 04/01 A3014 RMK A01 T00390011  RH  083%=      5-min Rain = 0
KFAS 142015Z 21018G23KT 04/01 A3013 RMK A01 T00410012  RH  082%=      5-min Rain = 0
KFAS 142020Z 20018KT 04/01 A3013 RMK A01 T00420010  RH  081%=      5-min Rain = 0
KFAS 142025Z 20017KT 04/01 A3013 RMK A01 T00420012  RH  082%=      5-min Rain = 0
KFAS 142030Z 21017G23KT 05/01 A3012 RMK A01 T00460014  RH  081%=      5-min Rain = 0
KFAS 142035Z 20017G22KT 05/01 A3012 RMK A01 T00500013  RH  078%=      5-min Rain = 0
KFAS 142040Z 20017KT 05/01 A3012 RMK A01 T00470013  RH  080%=      5-min Rain = 0
KFAS 142045Z 20016KT 05/02 A3012 RMK A01 T00490015  RH  080%=      5-min Rain = 0
KFAS 142050Z 19015G22KT 05/02 A3012 RMK A01 T00510016  RH  079%=      5-min Rain = 0
KFAS 142055Z 20017KT 05/02 A3011 RMK A01 T00540017  RH  079%=      5-min Rain = 0
KFAS 142100Z 21017G23KT 06/02 A3011 RMK A01 T00590018  RH  077%=      5-min Rain = 0
KFAS 142105Z 20018G23KT 06/02 A3011 RMK A01 T00580018  RH  077%=      5-min Rain = 0
KFAS 142110Z 20017G22KT 06/02 A301 RMK A01 T00620021  RH  076%=      5-min Rain = 0
KFAS 142115Z 20017G22KT 06/02 A301 RMK A01 T00610021  RH  077%=      5-min Rain = 0
KFAS 142120Z 20019KT 07/02 A301 RMK A01 T00660022  RH  075%=      5-min Rain = 0
KFAS 142125Z 19017KT 07/02 A301 RMK A01 T00650022  RH  075%=      5-min Rain = 0
KFAS 142130Z 20017KT 07/02 A301 RMK A01 T00660024  RH  076%=      5-min Rain = 0
KFAS 142135Z 19019G24KT 07/02 A3009 RMK A01 T00670023  RH  075%=      5-min Rain = 0
KFAS 142140Z 20017G22KT 07/02 A3009 RMK A01 T00690024  RH  074%=      5-min Rain = 0
KFAS 142145Z 19019KT 07/02 A3009 RMK A01 T00670022  RH  074%=      5-min Rain = 0
KFAS 142150Z 19017G22KT 06/02 A3009 RMK A01 T00630021  RH  076%=      5-min Rain = 0
KFAS 142155Z 19017G22KT 06/02 A3009 RMK A01 T00640023  RH  076%=      5-min Rain = 0
KFAS 142200Z 19016KT 07/03 A3009 RMK A01 T00680025  RH  076%=      5-min Rain = 0
KFAS 142205Z 19018G23KT 07/02 A3009 RMK A01 T00680023  RH  074%=      5-min Rain = 0
KFAS 142210Z 19015G20KT 07/03 A3008 RMK A01 T00690025  RH  075%=      5-min Rain = 0
KFAS 142215Z 19016G23KT 07/03 A3008 RMK A01 T00710025  RH  074%=      5-min Rain = 0
KFAS 142220Z 19018G23KT 07/02 A3008 RMK A01 T00690023  RH  074%=      5-min Rain = 0
KFAS 142225Z 18017KT 07/02 A3008 RMK A01 T00680024  RH  074%=      5-min Rain = 0
KFAS 142230Z 18017KT 07/02 A3008 RMK A01 T00670024  RH  075%=      5-min Rain = 0
KFAS 142235Z 18017KT 07/02 A3008 RMK A01 T00660023  RH  075%=      5-min Rain = 0
KFAS 142240Z 18017KT 07/02 A3008 RMK A01 T00660023  RH  075%=      5-min Rain = 0
KFAS 142245Z 18018KT 07/02 A3008 RMK A01 T00650023  RH  076%=      5-min Rain = 0
KFAS 142250Z 18018KT 06/02 A3008 RMK A01 T00620022  RH  077%=      5-min Rain = 0
KFAS 142255Z 18018KT 06/02 A3008 RMK A01 T00610021  RH  077%=      5-min Rain = 0
KFAS 142300Z 18017KT 06/02 A3008 RMK A01 T00610022  RH  077%=      5-min Rain = 0
KFAS 142305Z 17018KT 06/02 A3008 RMK A01 T00590021  RH  078%=      5-min Rain = 0
KFAS 142310Z 17017KT 06/02 A3008 RMK A01 T00560021  RH  080%=      5-min Rain = 0
KFAS 142315Z 18017G22KT 05/02 A3008 RMK A01 T00540020  RH  080%=      5-min Rain = 0
KFAS 142320Z 17017KT 05/02 A3008 RMK A01 T00520020  RH  081%=      5-min Rain = 0
KFAS 142325Z 18016KT 05/02 A3007 RMK A01 T00490018  RH  082%=      5-min Rain = 0
KFAS 142330Z 18016G21KT 05/02 A3007 RMK A01 T00460017  RH  083%=      5-min Rain = 0
KFAS 142335Z 18018G23KT 04/02 A3007 RMK A01 T00430016  RH  084%=      5-min Rain = 0
KFAS 142340Z 18017KT 04/02 A3007 RMK A01 T00420016  RH  084%=      5-min Rain = 0
KFAS 142345Z 17016G21KT 04/02 A3007 RMK A01 T00410016  RH  085%=      5-min Rain = 0
KFAS 142350Z 18018G24KT 04/02 A3006 RMK A01 T00400015  RH  085%=      5-min Rain = 0
KFAS 142355Z 18019G26KT 04/01 A3006 RMK A01 T00390014  RH  085%=      5-min Rain = 0
KFAS 150000Z 18020G25KT 04/01 A3006 RMK A01 T00380014  RH  086%=      5-min Rain = 0
KFAS 150005Z 18021G26KT 04/01 A3006 RMK A01 T00350014  RH  087%=      5-min Rain = 0
KFAS 150010Z 18018KT 03/01 A3006 RMK A01 T00330013  RH  088%=      5-min Rain = 0
KFAS 150015Z 18018KT 03/01 A3006 RMK A01 T00300012  RH  089%=      5-min Rain = 0
KFAS 150020Z 18019KT 03/01 A3006 RMK A01 T00270011  RH  090%=      5-min Rain = 0
KFAS 150025Z 18017G22KT 03/01 A3007 RMK A01 T00250010  RH  091%=      5-min Rain = 0
KFAS 150030Z 17017KT 02/01 A3007 RMK A01 T00230010  RH  092%=      5-min Rain = 0
KFAS 150035Z 17017KT 02/01 A3007 RMK A01 T00220009  RH  093%=      5-min Rain = 0
KFAS 150040Z 17019G25KT 02/01 A3006 RMK A01 T00200008  RH  093%=      5-min Rain = 0
KFAS 150045Z 18019KT 02/01 A3006 RMK A01 T00180007  RH  094%=      5-min Rain = 0
KFAS 150050Z 18019G25KT 02/01 A3006 RMK A01 T00160006  RH  094%=      5-min Rain = 0
KFAS 150055Z 17017G23KT 01/01 A3007 RMK A01 T00140005  RH  095%=      5-min Rain = 0
KFAS 150100Z 18020KT 01/01 A3006 RMK A01 T00140005  RH  095%=      5-min Rain = 0
KFAS 150105Z 18020G26KT 01/01 A3007 RMK A01 T00140005  RH  095%=      5-min Rain = 0
KFAS 150110Z 18019G24KT 01/00 A3007 RMK A01 T00120004  RH  095%=      5-min Rain = 0
KFAS 150115Z 17019G24KT 01/00 A3007 RMK A01 T00110003  RH  096%=      5-min Rain = 0
KFAS 150120Z 17019KT 01/00 A3007 RMK A01 T00100003  RH  096%=      5-min Rain = 0
KFAS 150125Z 18018G24KT 01/00 A3007 RMK A01 T00100004  RH  097%=      5-min Rain = 0
KFAS 150130Z 18018KT 01/00 A3008 RMK A01 T00100003  RH  097%=      5-min Rain = 0
KFAS 150135Z 18016KT 01/00 A3008 RMK A01 T00090003  RH  097%=      5-min Rain = 0
KFAS 150140Z 17016KT 01/00 A3008 RMK A01 T00080002  RH  097%=      5-min Rain = 0
KFAS 150145Z 17017KT 01/00 A3008 RMK A01 T00080002  RH  097%=      5-min Rain = 0
KFAS 150150Z 18017KT 01/00 A3008 RMK A01 T00080003  RH  098%=      5-min Rain = 0
KFAS 150155Z 18017KT 01/00 A3008 RMK A01 T00080003  RH  098%=      5-min Rain = 0
KFAS 150200Z 18018G23KT 01/00 A3008 RMK A01 T00090004  RH  098%=      5-min Rain = 0
KFAS 150205Z 18019G24KT 01/00 A3008 RMK A01 T00090004  RH  097%=      5-min Rain = 0
KFAS 150210Z 18018KT 01/00 A3008 RMK A01 T00090003  RH  097%=      5-min Rain = 0
KFAS 150215Z 18020KT 01/00 A3008 RMK A01 T00080003  RH  097%=      5-min Rain = 0
KFAS 150220Z 18019G25KT 01/00 A3008 RMK A01 T00080003  RH  097%=      5-min Rain = 0
KFAS 150225Z 18019G24KT 01/00 A3008 RMK A01 T00080002  RH  097%=      5-min Rain = 0
KFAS 150230Z 18020KT 01/00 A3008 RMK A01 T00080003  RH  097%=      5-min Rain = 0
KFAS 150235Z 18018KT 01/00 A3009 RMK A01 T00080002  RH  097%=      5-min Rain = 0
KFAS 150240Z 18018KT 01/00 A3009 RMK A01 T00070001  RH  097%=      5-min Rain = 0
KFAS 150245Z 18016G21KT 01/00 A3009 RMK A01 T00050000  RH  097%=      5-min Rain = 0
KFAS 150250Z 18017KT 00/00 A3009 RMK A01 T000400-0  RH  098%=      5-min Rain = 0
KFAS 150255Z 18018KT 00/M00 A3009 RMK A01 T00041001  RH  098%=      5-min Rain = 0
KFAS 150300Z 18019KT 00/M00 A3009 RMK A01 T00041001  RH  098%=      5-min Rain = 0
KFAS 150305Z 18020KT 00/M00 A3009 RMK A01 T00031001  RH  098%=      5-min Rain = 0
KFAS 150310Z 18020G26KT 00/M00 A3009 RMK A01 T00031001  RH  098%=      5-min Rain = 0
KFAS 150315Z 18022KT 00/M00 A3009 RMK A01 T00031001  RH  098%=      5-min Rain = 0
KFAS 150320Z 18021KT 00/M00 A3009 RMK A01 T00021001  RH  099%=      5-min Rain = 0
KFAS 150325Z 18021KT 00/M00 A3009 RMK A01 T00021001  RH  099%=      5-min Rain = 0
KFAS 150330Z 18021G27KT 00/00 A3009 RMK A01 T00030000  RH  099%=      5-min Rain = 0
KFAS 150335Z 18022KT 00/00 A3009 RMK A01 T00040001  RH  099%=      5-min Rain = 0
KFAS 150340Z 18021G26KT 00/00 A3009 RMK A01 T00040001  RH  099%=      5-min Rain = 0
KFAS 150345Z 18021G27KT 00/00 A301 RMK A01 T00040002  RH  100%=      5-min Rain = 0
KFAS 150350Z 18022G28KT 00/00 A301 RMK A01 T00040002  RH  100%=      5-min Rain = 0
KFAS 150355Z 18022G27KT 00/00 A301 RMK A01 T00040002  RH  100%=      5-min Rain = 0
KFAS 150400Z 18022G27KT 00/00 A3009 RMK A01 T00040002  RH  100%=      5-min Rain = 0
KFAS 150405Z 19020G26KT 00/00 A3009 RMK A01 T00040002  RH  100%=      5-min Rain = 0
KFAS 150410Z 19018G23KT 00/00 A301 RMK A01 T00030001  RH  100%=      5-min Rain = 0
KFAS 150415Z 19018KT 00/00 A3009 RMK A01 T00020001  RH  100%=      5-min Rain = 0
KFAS 150420Z 20018G23KT 00/00 A3009 RMK A01 T00020000  RH  100%=      5-min Rain = 0
KFAS 150425Z 20017KT 00/00 A301 RMK A01 T000100-0  RH  100%=      5-min Rain = 0
KFAS 150430Z 20016G22KT 00/00 A301 RMK A01 T000100-0  RH  100%=      5-min Rain = 0
KFAS 150435Z 21014KT 00/M00 A301 RMK A01 T00011001  RH  100%=      5-min Rain = 0
KFAS 150440Z 21012KT 00/00 A3011 RMK A01 T000000-2  RH  100%=      5-min Rain = 0
KFAS 150445Z 21013KT 00/00 A3011 RMK A01 T00-000-2  RH  100%=      5-min Rain = 0
KFAS 150450Z 21011KT M00/M00 A3011 RMK A01 T10011003  RH  100%=      5-min Rain = 0
KFAS 150455Z 21009KT M00/M00 A3011 RMK A01 T10021003  RH  100%=      5-min Rain = 0
KFAS 150500Z 21009KT M00/M00 A301 RMK A01 T10021003  RH  100%=      5-min Rain = 0
KFAS 150505Z 22009KT M00/M00 A301 RMK A01 T10011003  RH  100%=      5-min Rain = 0
KFAS 150510Z 22009KT M00/M00 A301 RMK A01 T10011003  RH  100%=      5-min Rain = 0
KFAS 150515Z 24007KT M00/M00 A301 RMK A01 T10011003  RH  100%=      5-min Rain = 0
KFAS 150520Z 23007KT M00/M00 A301 RMK A01 T10011003  RH  100%=      5-min Rain = 0
KFAS 150525Z 22007KT M00/M00 A301 RMK A01 T10011003  RH  099%=      5-min Rain = 0
KFAS 150530Z 22008KT M00/M00 A3009 RMK A01 T10011003  RH  099%=      5-min Rain = 0
KFAS 150535Z 21008KT 00/00 A3009 RMK A01 T000000-3  RH  099%=      5-min Rain = 0
KFAS 150540Z 21011KT 00/M00 A3009 RMK A01 T00021001  RH  099%=      5-min Rain = 0
KFAS 150545Z 21011KT 00/00 A3008 RMK A01 T000400-0  RH  098%=      5-min Rain = 0
KFAS 150550Z 21012G18KT 00/00 A3008 RMK A01 T000400-0  RH  098%=      5-min Rain = 0
KFAS 150555Z 21012KT 01/M00 A3008 RMK A01 T00051001  RH  098%=      5-min Rain = 0

Page generated in 0.0093 seconds.